Time;durP1;ratioP1;P1;durP2;ratioP2;P2;SDS_P1;SDS_P2;PMS_P1;PMS_P2;Temp;Humidity;BMP_temperature;BMP_pressure;BME280_temperature;BME280_humidity;BME280_pressure;Samples;Min_cycle;Max_cycle;Signal;HPM_P1;HPM_P2
2022/03/06 00:00:23;;;;;;;34.43;16.07;;;;;;;4.01;44.95;100959.75;6217208;22;97241;-82
2022/03/06 00:02:49;;;;;;;26.60;14.97;;;;;;;3.98;44.68;100962.34;6216174;22;98418;-82
2022/03/06 00:05:14;;;;;;;28.43;15.27;;;;;;;3.98;45.14;100964.94;6216691;22;97809;-82
2022/03/06 00:07:40;;;;;;;32.43;16.03;;;;;;;4.06;45.37;100981.41;6216342;22;97042;-82
2022/03/06 00:10:06;;;;;;;28.97;16.30;;;;;;;3.79;45.32;100944.09;6191980;22;97173;-82
2022/03/06 00:12:31;;;;;;;27.93;14.53;;;;;;;4.05;44.84;100969.28;6190285;22;101613;-83
2022/03/06 00:14:57;;;;;;;31.47;15.10;;;;;;;3.85;44.74;100931.13;6216531;22;101494;-82
2022/03/06 00:17:23;;;;;;;26.47;13.90;;;;;;;4.12;44.64;100980.56;6216536;22;96726;-82
2022/03/06 00:19:48;;;;;;;27.50;14.00;;;;;;;4.07;44.92;100978.84;6216156;22;96840;-83
2022/03/06 00:22:14;;;;;;;26.77;14.57;;;;;;;4.03;44.88;100969.28;6191234;22;100668;-83
2022/03/06 00:24:39;;;;;;;25.13;13.97;;;;;;;4.04;44.98;100976.22;6190398;22;101796;-82
2022/03/06 00:27:05;;;;;;;23.10;13.33;;;;;;;4.01;44.92;100968.41;6190765;22;96939;-82
2022/03/06 00:29:30;;;;;;;27.27;14.47;;;;;;;3.92;44.51;100947.59;6216761;22;96792;-85
2022/03/06 00:31:56;;;;;;;23.80;13.70;;;;;;;3.99;44.56;100964.09;6190823;22;102023;-82
2022/03/06 00:34:22;;;;;;;25.90;13.90;;;;;;;4.05;44.85;100977.97;6214975;22;100590;-82
2022/03/06 00:36:47;;;;;;;25.90;13.23;;;;;;;3.93;44.65;100949.34;6215548;22;96885;-82
2022/03/06 00:39:13;;;;;;;26.67;14.43;;;;;;;4.00;44.96;100958.03;6191684;22;96961;-82
2022/03/06 00:41:39;;;;;;;25.90;14.03;;;;;;;4.01;44.89;100962.34;6216346;22;101490;-84
2022/03/06 00:44:05;;;;;;;25.27;13.77;;;;;;;3.94;44.56;100960.59;6216968;22;100976;-82
2022/03/06 00:46:31;;;;;;;26.97;14.03;;;;;;;3.90;44.70;100964.94;6217407;22;96585;-83
2022/03/06 00:48:56;;;;;;;27.90;13.63;;;;;;;3.77;44.65;100943.22;6190949;22;97068;-81
2022/03/06 00:51:22;;;;;;;29.20;14.47;;;;;;;3.92;44.88;100962.31;6188905;22;101492;-84
2022/03/06 00:53:49;;;;;;;25.03;13.47;;;;;;;3.79;44.88;100935.44;6242706;22;97050;-83
2022/03/06 00:56:15;;;;;;;27.97;13.70;;;;;;;3.93;44.75;100964.94;6191612;22;96656;-81
2022/03/06 00:58:41;;;;;;;27.17;15.23;;;;;;;3.82;45.18;100959.69;6191100;22;96991;-82
2022/03/06 01:01:06;;;;;;;27.03;15.00;;;;;;;3.71;45.22;100944.94;6190914;22;100834;-82
2022/03/06 01:03:33;;;;;;;26.33;14.50;;;;;;;3.93;45.12;100967.53;6243152;22;98377;-82
2022/03/06 01:05:58;;;;;;;31.00;15.27;;;;;;;3.79;45.26;100933.72;6215010;22;96909;-82
2022/03/06 01:08:24;;;;;;;29.67;15.43;;;;;;;3.84;45.32;100937.19;6190535;22;96926;-82
2022/03/06 01:10:51;;;;;;;30.20;14.80;;;;;;;3.91;45.10;100953.66;6190401;22;101905;-82
2022/03/06 01:13:18;;;;;;;28.93;14.57;;;;;;;3.78;45.30;100928.50;6216503;22;97395;-82
2022/03/06 01:15:43;;;;;;;25.20;14.47;;;;;;;3.77;45.19;100939.75;6215767;22;96671;-82
2022/03/06 01:18:09;;;;;;;27.73;14.77;;;;;;;3.91;45.33;100958.84;6216106;22;97219;-82
2022/03/06 01:20:36;;;;;;;27.17;14.27;;;;;;;3.94;45.15;100955.41;6215266;22;101918;-86
2022/03/06 01:23:02;;;;;;;29.87;15.57;;;;;;;3.84;45.36;100939.78;6215123;22;101589;-82
2022/03/06 01:25:28;;;;;;;27.23;15.13;;;;;;;3.86;45.55;100948.44;6191151;22;96696;-82
2022/03/06 01:27:53;;;;;;;28.37;15.10;;;;;;;3.92;45.39;100959.72;6215612;22;96751;-82
2022/03/06 01:30:21;;;;;;;25.60;14.30;;;;;;;3.89;45.65;100960.56;6215627;22;101076;-82
2022/03/06 01:32:50;;;;;;;33.43;15.87;;;;;;;3.93;45.78;100962.34;6215882;22;97902;-83
2022/03/06 01:35:16;;;;;;;34.63;16.43;;;;;;;3.92;45.67;100955.38;6191191;22;96992;-81
2022/03/06 01:37:41;;;;;;;32.17;16.67;;;;;;;3.81;45.47;100944.09;6190171;22;96882;-84
2022/03/06 01:40:08;;;;;;;29.23;15.17;;;;;;;3.86;45.94;100952.78;6242007;22;98158;-82
2022/03/06 01:42:34;;;;;;;30.73;15.20;;;;;;;3.88;45.75;100958.84;6216100;22;101725;-82
2022/03/06 01:45:00;;;;;;;30.23;17.33;;;;;;;3.83;46.32;100937.19;6216139;22;96563;-83
2022/03/06 01:47:35;;;;;;;33.00;17.77;;;;;;;3.80;45.97;100944.97;6191289;22;96827;-82
2022/03/06 01:50:03;;;;;;;31.40;16.60;;;;;;;3.89;45.85;100957.97;6215411;22;101335;-82
2022/03/06 01:52:28;;;;;;;30.80;16.67;;;;;;;3.86;45.80;100956.22;6189691;22;101206;-82
2022/03/06 01:54:55;;;;;;;32.43;16.13;;;;;;;3.94;46.07;100964.06;6215215;22;97123;-83
2022/03/06 01:57:20;;;;;;;31.83;17.30;;;;;;;3.95;45.94;100959.72;6190127;22;97232;-83
2022/03/06 01:59:46;;;;;;;33.23;16.97;;;;;;;3.83;46.09;100934.56;6189809;22;100726;-82
2022/03/06 02:02:11;;;;;;;31.87;16.93;;;;;;;3.93;46.40;100954.53;6216378;22;97613;-82
2022/03/06 02:04:37;;;;;;;32.77;16.87;;;;;;;3.83;46.43;100931.97;6191127;22;96916;-82
2022/03/06 02:07:03;;;;;;;32.13;16.23;;;;;;;3.92;46.23;100949.31;6190770;22;96812;-82
2022/03/06 02:09:28;;;;;;;34.27;17.57;;;;;;;3.70;46.40;100925.03;6214355;22;101058;-84
2022/03/06 02:14:38;;;;;;;30.30;16.90;;;;;;;3.81;46.64;100957.06;6220082;22;96552;-82
2022/03/06 02:17:04;;;;;;;34.17;18.07;;;;;;;3.81;46.85;100947.56;6189997;22;96999;-83
2022/03/06 02:19:29;;;;;;;47.93;19.67;;;;;;;3.77;46.85;100947.53;6190684;22;100028;-83
2022/03/06 02:21:55;;;;;;;44.20;20.17;;;;;;;3.79;47.04;100951.03;6242178;22;97871;-82
2022/03/06 02:24:21;;;;;;;45.93;21.93;;;;;;;3.88;46.99;100947.59;6190880;22;97084;-83
2022/03/06 02:26:46;;;;;;;39.63;21.03;;;;;;;3.91;47.11;100955.41;6215717;22;96949;-83
2022/03/06 02:29:12;;;;;;;41.27;19.80;;;;;;;3.89;47.77;100957.97;6217478;22;100796;-82
2022/03/06 02:31:39;;;;;;;41.27;20.77;;;;;;;3.86;47.77;100961.44;6191467;22;101389;-83
2022/03/06 02:34:05;;;;;;;45.80;20.97;;;;;;;3.73;47.50;100936.28;6217262;22;96553;-83
2022/03/06 02:36:31;;;;;;;45.17;22.17;;;;;;;3.58;47.45;100912.88;6218491;22;96695;-83
2022/03/06 02:38:56;;;;;;;42.67;22.00;;;;;;;3.84;47.78;100952.78;6243016;22;98074;-82
2022/03/06 02:41:22;;;;;;;47.17;22.20;;;;;;;3.81;47.90;100942.38;6215133;22;97827;-85
2022/03/06 02:43:48;;;;;;;41.07;21.00;;;;;;;3.73;47.75;100940.63;6214754;22;96614;-82
2022/03/06 02:46:13;;;;;;;46.77;22.53;;;;;;;3.82;47.96;100948.44;6217461;22;96870;-82
2022/03/06 02:48:39;;;;;;;44.67;22.33;;;;;;;3.79;47.87;100951.03;6191615;22;101893;-82
2022/03/06 02:51:05;;;;;;;44.07;22.13;;;;;;;3.71;48.15;100934.53;6190692;22;100801;-82
2022/03/06 02:53:31;;;;;;;41.30;19.77;;;;;;;3.79;47.98;100946.69;6217859;22;96616;-82
2022/03/06 02:55:58;;;;;;;42.27;20.30;;;;;;;3.75;47.87;100938.88;6192069;22;97048;-82
2022/03/06 02:58:24;;;;;;;41.97;20.60;;;;;;;3.75;47.79;100944.97;6191577;22;101404;-82
2022/03/06 03:00:50;;;;;;;37.47;19.80;;;;;;;3.84;47.96;100941.53;6243094;22;97328;-82
2022/03/06 03:03:16;;;;;;;37.80;18.57;;;;;;;3.78;47.98;100944.97;6191635;22;97184;-82
2022/03/06 03:05:41;;;;;;;38.97;19.57;;;;;;;3.70;47.92;100933.69;6243403;22;97150;-82
2022/03/06 03:08:07;;;;;;;35.93;19.00;;;;;;;3.68;48.11;100935.41;6189676;22;102123;-82
2022/03/06 03:10:52;;;;;;;39.30;19.33;;;;;;;3.77;48.03;100956.19;6216922;22;101215;-82
2022/03/06 03:13:17;;;;;;;41.37;19.63;;;;;;;3.72;47.49;100944.06;6242165;22;97060;-82
2022/03/06 03:15:43;;;;;;;40.80;20.30;;;;;;;3.73;47.90;100940.63;6216442;22;97302;-83
2022/03/06 03:18:08;;;;;;;40.10;19.97;;;;;;;3.71;48.05;100931.94;6215532;22;98095;-82
2022/03/06 03:20:34;;;;;;;39.87;19.40;;;;;;;3.56;48.00;100907.66;6190755;22;101553;-82
2022/03/06 03:23:00;;;;;;;42.73;20.50;;;;;;;3.74;47.59;100948.41;6190288;22;97029;-82
2022/03/06 03:25:26;;;;;;;39.53;20.20;;;;;;;3.68;48.04;100927.59;6242750;22;97012;-82
2022/03/06 03:27:52;;;;;;;35.33;18.57;;;;;;;3.66;48.14;100931.06;6215979;22;101083;-82
2022/03/06 03:30:17;;;;;;;37.77;18.60;;;;;;;3.66;48.14;100936.25;6217030;22;98181;-82
2022/03/06 03:32:43;;;;;;;38.23;19.10;;;;;;;3.67;48.46;100936.28;6190926;22;96963;-82
2022/03/06 03:35:09;;;;;;;38.87;18.60;;;;;;;3.77;48.26;100939.75;6191043;22;97236;-83
2022/03/06 03:37:35;;;;;;;35.37;18.50;;;;;;;3.78;48.05;100949.28;6190907;22;101332;-82
2022/03/06 03:40:01;;;;;;;32.27;16.80;;;;;;;3.74;48.11;100940.59;6191111;22;100901;-82
2022/03/06 03:42:26;;;;;;;35.70;16.87;;;;;;;3.78;47.91;100944.06;6191271;22;96522;-82
2022/03/06 03:44:52;;;;;;;30.37;16.20;;;;;;;3.70;47.50;100936.28;6216940;22;97021;-82
2022/03/06 03:47:17;;;;;;;28.23;15.30;;;;;;;3.71;48.20;100945.78;6190914;22;101165;-82
2022/03/06 03:49:43;;;;;;;30.33;15.30;;;;;;;3.74;47.91;100953.59;6192216;22;101162;-82
2022/03/06 03:52:08;;;;;;;29.83;16.13;;;;;;;3.76;47.70;100951.03;6190666;22;97030;-82
2022/03/06 03:54:35;;;;;;;29.10;16.37;;;;;;;3.68;48.00;100937.13;6192494;22;97112;-82
2022/03/06 03:57:01;;;;;;;30.40;15.70;;;;;;;3.73;47.71;100948.41;6189882;22;101578;-84
2022/03/06 03:59:27;;;;;;;29.27;15.87;;;;;;;3.45;47.76;100903.28;6215400;22;101450;-82
2022/03/06 04:01:52;;;;;;;28.70;15.67;;;;;;;3.70;47.94;100941.47;6215863;22;96618;-82
2022/03/06 04:04:18;;;;;;;28.70;14.77;;;;;;;3.73;47.85;100951.88;6191687;22;96817;-81
2022/03/06 04:06:43;;;;;;;25.93;14.53;;;;;;;3.78;47.66;100955.34;6216834;22;101134;-82
2022/03/06 04:09:09;;;;;;;29.97;15.23;;;;;;;3.75;48.12;100957.94;6190468;22;101621;-83
2022/03/06 04:11:34;;;;;;;30.80;14.97;;;;;;;3.67;47.37;100951.00;6217266;22;96484;-82
2022/03/06 04:14:00;;;;;;;26.20;15.77;;;;;;;3.68;47.65;100940.59;6216230;22;96645;-82
2022/03/06 04:16:26;;;;;;;27.17;14.30;;;;;;;3.66;47.81;100942.31;6215987;22;100977;-82
2022/03/06 04:18:52;;;;;;;26.37;14.43;;;;;;;3.67;47.75;100940.59;6190606;22;101078;-84
2022/03/06 04:21:17;;;;;;;31.07;14.73;;;;;;;3.69;47.97;100959.63;6190702;22;96681;-82
2022/03/06 04:23:44;;;;;;;30.10;14.07;;;;;;;3.60;47.65;100942.28;6191539;22;96910;-82
2022/03/06 04:26:09;;;;;;;26.10;13.83;;;;;;;3.61;47.60;100955.28;6216731;22;98498;-82
2022/03/06 04:28:35;;;;;;;29.53;14.37;;;;;;;3.50;47.82;100932.72;6216734;22;101263;-82
2022/03/06 04:31:01;;;;;;;26.53;14.33;;;;;;;3.66;47.63;100949.22;6242076;22;97048;-82
2022/03/06 04:33:26;;;;;;;29.23;14.90;;;;;;;3.66;47.56;100952.69;6216735;22;96863;-82
2022/03/06 04:35:52;;;;;;;23.67;13.30;;;;;;;3.52;47.83;100920.59;6216459;22;101355;-85
2022/03/06 04:38:17;;;;;;;24.87;13.23;;;;;;;3.67;47.80;100945.78;6216387;22;101300;-82
2022/03/06 04:40:43;;;;;;;25.57;15.03;;;;;;;3.52;47.73;100924.09;6217143;22;96562;-82
2022/03/06 04:43:08;;;;;;;26.33;13.90;;;;;;;3.65;47.87;100944.91;6190083;22;97086;-83
2022/03/06 04:45:34;;;;;;;28.80;14.87;;;;;;;3.74;47.80;100948.41;6190456;22;100884;-82
2022/03/06 04:48:00;;;;;;;28.07;15.53;;;;;;;3.69;47.57;100947.50;6190491;22;101466;-82
2022/03/06 04:50:25;;;;;;;23.50;14.07;;;;;;;3.65;47.56;100931.94;6216445;22;96700;-82
2022/03/06 04:52:51;;;;;;;26.93;14.97;;;;;;;3.67;47.68;100954.44;6217173;22;96824;-82
2022/03/06 04:55:16;;;;;;;31.50;15.03;;;;;;;3.66;47.76;100949.22;6216028;22;101518;-82
2022/03/06 04:57:45;;;;;;;27.57;15.20;;;;;;;3.66;47.86;100950.09;6216119;22;101792;-83
2022/03/06 05:00:11;;;;;;;25.67;14.33;;;;;;;3.63;48.05;100950.06;6191490;22;97024;-83
2022/03/06 05:02:37;;;;;;;32.50;14.83;;;;;;;3.61;47.67;100944.03;6191321;22;96802;-83
2022/03/06 05:05:03;;;;;;;29.40;15.97;;;;;;;3.63;47.71;100942.28;6190467;22;100738;-82
2022/03/06 05:07:29;;;;;;;24.87;14.40;;;;;;;3.67;47.64;100953.59;6216303;22;101870;-82
2022/03/06 05:09:55;;;;;;;37.73;15.03;;;;;;;3.67;47.74;100949.25;6215955;22;97021;-87
2022/03/06 05:12:20;;;;;;;27.80;15.23;;;;;;;3.56;47.47;100941.41;6216208;22;96740;-82
2022/03/06 05:14:46;;;;;;;31.23;16.40;;;;;;;3.61;47.89;100944.03;6242134;22;97935;-82
2022/03/06 05:17:11;;;;;;;33.43;15.53;;;;;;;3.53;47.89;100932.75;6215656;22;101376;-83
2022/03/06 05:19:37;;;;;;;30.73;15.83;;;;;;;3.55;47.82;100938.78;6190989;22;96633;-83
2022/03/06 05:22:03;;;;;;;31.30;15.53;;;;;;;3.64;47.65;100957.03;6190567;22;96997;-82
2022/03/06 05:24:28;;;;;;;30.83;16.17;;;;;;;3.58;47.78;100949.22;6190642;22;101197;-83
2022/03/06 05:26:54;;;;;;;25.90;14.80;;;;;;;3.58;47.55;100949.22;6216007;22;101268;-82
2022/03/06 05:29:19;;;;;;;26.37;14.27;;;;;;;3.54;48.23;100950.03;6191212;22;96568;-83
2022/03/06 05:31:45;;;;;;;28.00;15.37;;;;;;;3.52;47.96;100950.06;6190503;22;96869;-82
2022/03/06 05:34:11;;;;;;;32.77;15.17;;;;;;;3.45;47.92;100940.47;6214936;22;100207;-82
2022/03/06 05:36:36;;;;;;;32.70;15.57;;;;;;;3.58;47.74;100964.78;6216135;22;101072;-83
2022/03/06 05:39:02;;;;;;;35.10;17.10;;;;;;;3.57;48.42;100966.50;6190725;22;96900;-83
2022/03/06 05:41:28;;;;;;;27.30;15.73;;;;;;;3.59;48.38;100958.72;6216332;22;96831;-82
2022/03/06 05:43:54;;;;;;;30.53;16.37;;;;;;;3.58;48.72;100964.78;6191097;22;101283;-81
2022/03/06 05:46:19;;;;;;;33.70;17.80;;;;;;;3.49;48.82;100960.44;6189700;22;101468;-83
2022/03/06 05:48:46;;;;;;;35.13;17.70;;;;;;;3.61;49.19;100972.59;6215030;22;97008;-83
2022/03/06 05:51:11;;;;;;;39.07;19.40;;;;;;;3.56;49.25;100967.38;6190378;22;96865;-83
2022/03/06 05:53:37;;;;;;;33.57;17.67;;;;;;;3.59;48.83;100971.72;6216537;22;101609;-82
2022/03/06 05:56:03;;;;;;;29.90;17.00;;;;;;;3.43;49.26;100952.56;6219066;22;97691;-83
2022/03/06 05:58:28;;;;;;;34.47;18.30;;;;;;;3.52;49.36;100962.13;6193641;22;97115;-82
2022/03/06 06:00:54;;;;;;;35.93;18.17;;;;;;;3.54;49.05;100970.81;6220251;22;96858;-82
2022/03/06 06:03:19;;;;;;;35.67;17.83;;;;;;;3.59;49.16;100975.16;6192992;22;101213;-82
2022/03/06 06:05:45;;;;;;;35.90;17.10;;;;;;;3.56;49.28;100969.97;6243401;22;101569;-82
2022/03/06 06:08:10;;;;;;;41.80;19.30;;;;;;;3.51;49.38;100971.66;6219167;22;96856;-83
2022/03/06 06:10:37;;;;;;;36.37;18.63;;;;;;;3.50;49.42;100963.88;6193942;22;96902;-83
2022/03/06 06:13:03;;;;;;;38.87;18.33;;;;;;;3.53;49.24;100963.91;6193281;22;101348;-83
2022/03/06 06:15:28;;;;;;;33.20;17.83;;;;;;;3.59;49.40;100976.91;6219297;22;97703;-83
2022/03/06 06:17:54;;;;;;;32.43;17.90;;;;;;;3.47;49.61;100959.53;6193238;22;96680;-83
2022/03/06 06:20:19;;;;;;;30.03;16.23;;;;;;;3.50;49.21;100959.56;6217928;22;97470;-83
2022/03/06 06:22:45;;;;;;;35.03;17.67;;;;;;;3.54;49.50;100974.28;6217416;22;101585;-83
2022/03/06 06:25:10;;;;;;;37.13;17.30;;;;;;;3.47;49.42;100963.88;6217506;22;97824;-83
2022/03/06 06:27:36;;;;;;;30.50;18.77;;;;;;;3.43;49.47;100959.50;6217959;22;96767;-83
2022/03/06 06:30:02;;;;;;;31.70;18.60;;;;;;;3.36;49.64;100950.81;6192797;22;96979;-85
2022/03/06 06:32:28;;;;;;;32.80;18.50;;;;;;;3.48;49.39;100973.38;6191890;22;101388;-82
2022/03/06 06:34:53;;;;;;;32.00;18.33;;;;;;;3.50;49.68;100967.34;6192180;22;101491;-81
2022/03/06 06:37:19;;;;;;;27.10;16.23;;;;;;;3.53;49.30;100976.88;6192339;22;96626;-82
2022/03/06 06:39:44;;;;;;;31.97;16.70;;;;;;;3.51;49.25;100965.59;6218740;22;96628;-83
2022/03/06 06:42:10;;;;;;;30.47;16.90;;;;;;;3.42;48.96;100947.41;6216344;22;101786;-83
2022/03/06 06:44:35;;;;;;;32.30;17.30;;;;;;;3.50;49.03;100956.09;6216796;22;100900;-82
2022/03/06 06:47:01;;;;;;;32.37;16.30;;;;;;;3.38;49.19;100931.81;6216335;22;96893;-87
2022/03/06 06:49:27;;;;;;;30.63;16.03;;;;;;;3.44;48.67;100949.13;6217567;22;96996;-82
2022/03/06 06:51:53;;;;;;;31.63;16.50;;;;;;;3.40;48.39;100950.84;6191204;22;102195;-83
2022/03/06 06:54:19;;;;;;;30.53;16.20;;;;;;;3.63;48.35;100976.03;6243073;22;97641;-82
2022/03/06 06:56:44;;;;;;;27.03;16.10;;;;;;;3.56;48.19;100963.91;6191335;22;97172;-83
2022/03/06 06:59:10;;;;;;;31.83;17.13;;;;;;;3.61;48.34;100970.00;6218182;22;97140;-82
2022/03/06 07:01:36;;;;;;;31.30;16.00;;;;;;;3.54;48.35;100963.88;6191857;22;100165;-82
2022/03/06 07:04:02;;;;;;;32.43;16.53;;;;;;;3.39;48.15;100935.25;6218272;22;101116;-86
2022/03/06 07:06:27;;;;;;;28.07;16.37;;;;;;;3.59;48.03;100962.19;6214170;22;96770;-83
2022/03/06 07:08:53;;;;;;;30.70;16.93;;;;;;;3.66;48.13;100972.59;6214708;22;96741;-82
2022/03/06 07:11:18;;;;;;;33.10;17.33;;;;;;;3.64;47.55;100975.19;6213562;22;98461;-83
2022/03/06 07:13:44;;;;;;;32.13;17.40;;;;;;;3.65;47.60;100976.06;6214928;22;98077;-83
2022/03/06 07:16:09;;;;;;;29.80;15.23;;;;;;;3.57;47.57;100974.28;6216309;22;96694;-82
2022/03/06 07:18:35;;;;;;;30.83;17.17;;;;;;;3.67;47.89;100983.00;6216899;22;97687;-82
2022/03/06 07:21:02;;;;;;;31.80;17.53;;;;;;;3.43;47.73;100938.72;6188371;22;101047;-84
2022/03/06 07:23:31;;;;;;;29.20;15.77;;;;;;;3.63;47.79;100970.84;6214866;22;97987;-82
2022/03/06 07:25:57;;;;;;;33.23;18.00;;;;;;;3.39;47.44;100936.13;6190157;22;96672;-82
2022/03/06 07:28:23;;;;;;;27.70;16.03;;;;;;;3.69;47.53;100981.25;6215997;22;97255;-82
2022/03/06 07:30:49;;;;;;;28.87;15.37;;;;;;;3.64;47.63;100983.00;6190754;22;100114;-82
2022/03/06 07:33:14;;;;;;;29.83;17.00;;;;;;;3.55;47.69;100967.34;6215177;22;97533;-82
2022/03/06 07:35:40;;;;;;;29.53;16.97;;;;;;;3.52;47.96;100959.53;6216326;22;96709;-82
2022/03/06 07:38:06;;;;;;;29.33;17.10;;;;;;;3.66;47.25;100983.84;6211544;22;96836;-84
2022/03/06 07:40:32;;;;;;;32.00;18.43;;;;;;;3.46;47.66;100944.84;6186329;22;101717;-83
2022/03/06 07:42:57;;;;;;;33.00;17.17;;;;;;;3.73;47.91;100987.38;6240698;22;97655;-84
2022/03/06 07:45:23;;;;;;;34.83;18.33;;;;;;;3.66;47.80;100963.06;6187728;22;96764;-84
2022/03/06 07:47:49;;;;;;;28.30;16.03;;;;;;;3.74;48.00;100966.56;6189027;22;96844;-83
2022/03/06 07:50:14;;;;;;;29.43;16.70;;;;;;;3.88;47.39;100984.81;6186640;22;102006;-84
2022/03/06 07:52:40;;;;;;;30.77;16.23;;;;;;;3.88;46.49;100983.97;6187928;22;101534;-84
2022/03/06 07:55:07;;;;;;;24.83;15.23;;;;;;;3.85;46.79;100987.41;6186971;22;96719;-85
2022/03/06 07:57:33;;;;;;;27.10;14.90;;;;;;;3.76;46.65;100966.59;6212300;22;97328;-83
2022/03/06 07:59:59;;;;;;;25.50;14.73;;;;;;;3.81;47.01;100968.34;6212263;22;101567;-83
2022/03/06 08:02:24;;;;;;;24.83;14.50;;;;;;;3.56;46.63;100928.41;6212686;22;101579;-83
2022/03/06 08:04:50;;;;;;;27.17;15.83;;;;;;;3.69;46.18;100939.72;6213385;22;97073;-83
2022/03/06 08:07:16;;;;;;;30.00;15.37;;;;;;;3.93;46.03;100979.66;6212915;22;96787;-78
2022/03/06 08:09:41;;;;;;;27.77;16.20;;;;;;;3.87;46.59;100977.91;6210610;22;101819;-83
2022/03/06 08:12:07;;;;;;;27.50;15.30;;;;;;;3.90;46.69;100982.22;6212344;22;99704;-83
2022/03/06 08:14:33;;;;;;;26.27;15.20;;;;;;;3.86;46.06;100969.22;6212737;22;96750;-81
2022/03/06 08:16:59;;;;;;;22.70;14.10;;;;;;;3.94;46.30;100977.03;6241496;22;97472;-82
2022/03/06 08:19:25;;;;;;;28.87;14.93;;;;;;;3.89;46.34;100962.31;6189461;22;100983;-81
2022/03/06 08:21:50;;;;;;;29.97;16.07;;;;;;;3.98;46.72;100970.13;6214273;22;101833;-85
2022/03/06 08:24:16;;;;;;;31.40;16.83;;;;;;;3.97;46.55;100973.59;6215952;22;97226;-88
2022/03/06 08:26:43;;;;;;;26.13;14.53;;;;;;;4.03;46.17;100976.22;6190456;22;97157;-83
2022/03/06 08:29:08;;;;;;;30.80;16.73;;;;;;;4.00;45.88;100963.22;6190086;22;101363;-84
2022/03/06 08:31:34;;;;;;;24.20;14.00;;;;;;;4.05;45.76;100974.50;6216174;22;101502;-87
2022/03/06 08:33:59;;;;;;;24.80;15.17;;;;;;;3.97;45.52;100966.66;6217341;22;96578;-90
2022/03/06 08:36:25;;;;;;;25.70;15.27;;;;;;;4.00;45.71;100966.66;6240746;22;96848;-90
2022/03/06 08:38:50;;;;;;;30.03;14.40;;;;;;;3.98;45.60;100964.94;6214377;22;100792;-90
2022/03/06 08:41:16;;;;;;;26.83;15.23;;;;;;;4.09;45.69;100968.44;6215060;22;101321;-93
2022/03/06 08:43:42;;;;;;;27.40;14.83;;;;;;;4.12;45.44;100971.03;6215756;22;96728;-93
2022/03/06 08:46:07;;;;;;;27.90;14.57;;;;;;;3.73;45.47;100906.88;6214313;22;96814;-85
2022/03/06 08:48:36;;;;;;;26.33;15.50;;;;;;;3.90;45.59;100928.56;6212833;22;101401;-82
2022/03/06 08:51:05;;;;;;;31.80;16.80;;;;;;;4.09;45.49;100960.63;6239037;22;97755;-85
2022/03/06 08:53:32;;;;;;;25.63;15.27;;;;;;;4.07;45.67;100958.06;6213667;22;97149;-86
2022/03/06 08:55:58;;;;;;;28.10;14.87;;;;;;;4.08;45.88;100943.31;6190199;22;96987;-85
2022/03/06 08:58:24;;;;;;;26.97;15.17;;;;;;;4.24;46.14;100947.66;6215037;22;97450;-86
2022/03/06 09:00:49;;;;;;;27.20;14.67;;;;;;;4.24;45.96;100960.66;6189264;22;101129;-82
2022/03/06 09:03:15;;;;;;;22.67;13.93;;;;;;;4.26;45.46;100963.28;6189465;22;96815;-83
2022/03/06 09:05:40;;;;;;;27.97;15.30;;;;;;;4.31;45.33;100970.22;6190551;22;96788;-83
2022/03/06 09:08:09;;;;;;;21.93;13.47;;;;;;;4.27;45.57;100947.66;6215027;22;101650;-82
2022/03/06 09:10:36;;;;;;;24.23;14.10;;;;;;;4.36;45.28;100972.81;6212297;22;98494;-80
2022/03/06 09:13:02;;;;;;;23.53;13.77;;;;;;;4.37;45.15;100971.97;6186679;22;96636;-80
2022/03/06 09:15:28;;;;;;;24.30;12.90;;;;;;;4.25;44.78;100941.63;6185725;22;97372;-79
2022/03/06 09:17:53;;;;;;;25.33;13.20;;;;;;;4.45;45.03;100970.25;6186602;22;101431;-80
2022/03/06 09:20:19;;;;;;;23.00;12.97;;;;;;;4.25;44.49;100936.44;6186049;22;100141;-79
2022/03/06 09:22:46;;;;;;;24.13;13.20;;;;;;;4.43;43.98;100964.19;6212978;22;97562;-80
2022/03/06 09:25:12;;;;;;;23.20;13.43;;;;;;;4.43;43.73;100964.19;6185661;22;97282;-81
2022/03/06 09:27:38;;;;;;;29.50;16.83;;;;;;;4.08;43.88;100917.34;6209335;22;101148;-79
2022/03/06 09:30:06;;;;;;;29.53;15.33;;;;;;;4.30;44.04;100945.09;6161991;22;100873;-81
2022/03/06 09:32:31;;;;;;;29.60;14.53;;;;;;;4.45;44.06;100970.25;6214231;22;97129;-81
2022/03/06 09:34:57;;;;;;;30.10;14.53;;;;;;;4.50;44.26;100968.50;6187215;22;96894;-80
2022/03/06 09:37:23;;;;;;;28.60;13.80;;;;;;;4.23;44.02;100919.09;6211831;22;101145;-79
2022/03/06 09:39:48;;;;;;;26.00;14.07;;;;;;;4.51;44.04;100972.88;6211805;22;100891;-81
2022/03/06 09:42:20;;;;;;;28.00;14.20;;;;;;;4.23;43.53;100919.97;6239908;22;97267;-84
2022/03/06 09:44:46;;;;;;;21.07;12.57;;;;;;;4.55;43.50;100976.31;6188819;22;97296;-83
2022/03/06 09:47:13;;;;;;;22.37;13.33;;;;;;;4.19;43.21;100918.22;6213413;22;98192;-84
2022/03/06 09:49:38;;;;;;;25.07;13.27;;;;;;;4.50;43.49;100975.44;6187870;22;100772;-83
2022/03/06 09:52:04;;;;;;;22.00;12.67;;;;;;;4.42;43.46;100959.84;6212700;22;97239;-83
2022/03/06 09:54:30;;;;;;;23.77;13.77;;;;;;;4.62;43.70;100980.66;6213881;22;97333;-82
2022/03/06 09:56:57;;;;;;;26.27;13.07;;;;;;;4.50;43.62;100957.25;6212319;22;101303;-81
2022/03/06 09:59:23;;;;;;;21.17;12.03;;;;;;;4.56;42.92;100975.44;6185848;22;101012;-79
2022/03/06 10:01:49;;;;;;;18.97;12.20;;;;;;;4.49;42.22;100966.78;6239299;22;96616;-77
2022/03/06 10:04:26;;;;;;;15.47;9.70;;;;;;;4.59;41.50;100980.66;6186856;22;96919;-80
2022/03/06 10:07:05;;;;;;;17.97;10.53;;;;;;;4.53;41.82;100984.09;6212038;22;101047;-81
2022/03/06 10:09:51;;;;;;;15.73;10.70;;;;;;;4.52;42.13;100971.13;6211057;22;101540;-80
2022/03/06 10:12:35;;;;;;;18.53;11.40;;;;;;;4.57;42.31;100982.41;6186206;22;96814;-78
2022/03/06 10:15:06;;;;;;;18.43;11.20;;;;;;;4.60;41.81;100977.19;6212559;22;97062;-78
2022/03/06 10:17:33;;;;;;;22.20;12.60;;;;;;;4.56;42.02;100977.19;6186221;22;101949;-77
2022/03/06 10:20:12;;;;;;;22.33;12.30;;;;;;;4.59;42.02;100978.03;6210317;22;101703;-77
2022/03/06 10:22:41;;;;;;;21.27;12.47;;;;;;;4.30;42.54;100926.03;6187612;22;97228;-76
2022/03/06 10:25:09;;;;;;;22.13;13.03;;;;;;;4.48;42.30;100953.75;6186672;22;97551;-75
2022/03/06 10:27:57;;;;;;;19.73;11.87;;;;;;;4.51;42.68;100961.59;6209999;22;98100;-77
2022/03/06 10:30:23;;;;;;;20.20;11.17;;;;;;;4.60;41.69;100986.75;6211488;22;100639;-74
2022/03/06 10:32:49;;;;;;;18.13;10.70;;;;;;;4.29;42.02;100927.75;6186921;22;96799;-77
2022/03/06 10:35:15;;;;;;;19.30;11.33;;;;;;;4.60;42.18;100981.53;6185390;22;97338;-76
2022/03/06 10:37:40;;;;;;;18.90;11.53;;;;;;;4.41;41.80;100937.31;6212042;22;99325;-78
2022/03/06 10:40:07;;;;;;;20.77;12.07;;;;;;;4.56;41.88;100962.44;6211876;22;97764;-79
2022/03/06 10:42:33;;;;;;;17.43;11.50;;;;;;;4.56;42.19;100959.84;6238647;22;97247;-78
2022/03/06 10:44:59;;;;;;;19.00;12.03;;;;;;;4.53;42.13;100954.66;6188539;22;97082;-78
2022/03/06 10:47:24;;;;;;;22.10;12.10;;;;;;;4.48;41.64;100946.84;6211860;22;101650;-78
2022/03/06 10:50:05;;;;;;;21.43;12.10;;;;;;;4.63;41.85;100959.00;6212909;22;101820;-76
2022/03/06 10:52:41;;;;;;;20.20;11.73;;;;;;;4.34;42.49;100903.53;6210903;22;97297;-76
2022/03/06 10:55:06;;;;;;;20.73;12.37;;;;;;;4.57;42.52;100948.59;6187420;22;98090;-77
2022/03/06 10:57:32;;;;;;;26.37;13.93;;;;;;;4.46;42.46;100939.91;6210874;22;100029;-76
2022/03/06 10:59:59;;;;;;;20.27;11.90;;;;;;;4.45;42.12;100941.66;6212742;22;101613;-75
2022/03/06 11:02:25;;;;;;;20.37;12.67;;;;;;;4.41;42.35;100923.44;6213146;22;96664;-76
2022/03/06 11:04:53;;;;;;;23.13;13.60;;;;;;;4.45;42.15;100925.16;6212774;22;96910;-76
2022/03/06 11:07:19;;;;;;;20.43;12.53;;;;;;;4.53;42.08;100936.44;6212270;22;97428;-78
2022/03/06 11:09:45;;;;;;;21.50;12.57;;;;;;;4.49;42.08;100943.38;6213348;22;99392;-74
2022/03/06 11:12:11;;;;;;;16.73;11.30;;;;;;;4.51;41.93;100940.81;6239049;22;97146;-74